Latest Coastal Weather Observations for Lombadina

IDW60701

Issued at 4:13 pm WST Tuesday 6 December 2016 (issued every 10 minutes, with the page automatically refreshed every 10 minutes)

About coastal observations | Map of coastal stations | Coastal observations for WA | Marine services | Other Formats
Station Details ID: 503016 Name: LOMBADINA AIRSTRIP Lat: -16.52 Lon: 122.92 Height: 42.0 m
Data from the previous 72 hours. | See also: Recent months for locations in Western Australia
Date/Time
WST
Temp
°C
Wind Pressure Rain since
9am
mm
Weather Cloud Vis
km
Sea
Height
m
Swell
Dir  Spd
kts
Gust
kts
hPa Trend Height
m
Period
s
Dir
06/04:00pm 30.5 WNW 5 8 1007.1 - 0.0 - - 10 - - - -
06/03:30pm 30.9 NW 5 9 1007.2 - 0.0 - - 10 - - - -
06/03:00pm 30.8 NW 8 11 1007.3 - 0.0 - - 10 - - - -
06/02:30pm 31.3 NW 8 10 1007.6 - 0.0 - - 10 - - - -
06/02:00pm 31.7 NW 5 7 1007.7 - 0.0 - - 10 - - - -
06/01:30pm 32.9 E 1 3 1008.1 - 0.0 - - 10 - - - -
06/01:00pm 32.0 SE 3 7 1008.4 - 0.0 - - 10 - - - -
06/12:30pm 31.9 E 4 7 1008.7 - 0.0 - - 10 - - - -
06/12:00pm 31.7 ENE 4 9 1009.1 - 0.0 - - 10 - - - -
06/11:30am 31.5 ESE 5 11 1009.4 - 0.0 - - 10 - - - -
06/11:00am 31.3 ESE 7 11 1009.7 - 0.0 - - 10 - - - -
06/10:30am 31.0 ESE 7 12 1009.9 - 0.0 - - 10 - - - -
06/10:00am 31.2 ESE 8 14 1010.0 - 0.0 - - 10 - - - -
06/09:30am 30.4 ESE 9 15 1010.3 - 0.0 - - 10 - - - -
06/09:00am 30.2 ESE 7 13 1010.6 - 15.8 - - 10 - - - -
06/08:30am 29.7 ESE 7 12 1010.8 - 15.8 - - 10 - - - -
06/08:00am 29.5 ESE 9 15 1010.4 - 15.8 - - 10 - - - -
06/07:30am 29.0 ESE 8 14 1010.4 - 15.8 - - 10 - - - -
06/07:00am 28.9 ESE 8 14 1010.2 - 15.8 - - 10 - - - -
06/06:30am 27.4 SE 3 4 1010.0 - 15.8 - Partly cloudy 10 - - - -
06/06:00am 26.9 SE 4 6 1009.8 - 15.8 - - 10 - - - -
06/05:30am 25.9 SE 4 6 1009.4 - 15.8 - - 10 - - - -
06/05:00am 25.5 SE 3 5 1009.1 - 15.8 - - 10 - - - -
06/04:30am 25.2 SSE 3 4 1008.7 - 15.8 - - 10 - - - -
06/04:00am 25.1 SSE 3 5 1008.4 - 15.8 - - 10 - - - -
06/03:30am 25.1 S 2 3 1008.4 - 15.8 - - 10 - - - -
06/03:00am 25.6 SE 3 5 1008.3 - 15.8 - - 10 - - - -
06/02:30am 25.6 SE 3 5 1008.2 - 15.8 - - 10 - - - -
06/02:00am 25.5 SE 3 5 1008.2 - 15.8 - - 10 - - - -
06/01:30am 25.5 SSE 2 4 1008.2 - 15.8 - - 10 - - - -
06/01:00am 25.6 SE 3 5 1008.6 - 15.8 - - 10 - - - -
06/12:30am 25.4 SE 3 4 1008.8 - 15.8 - - 10 - - - -
06/12:00am 25.6 SSE 2 4 1009.2 - 15.8 - - 10 - - - -
 
Date/Time
WST
Temp
°C
Wind Pressure Rain since
9am
mm
Weather Cloud Vis
km
Sea
Height
m
Swell
Dir  Spd
kts
Gust
kts
hPa Trend Height
m
Period
s
Dir
05/11:30pm 25.8 SE 2 4 1009.3 - 15.8 - - 10 - - - -
05/11:00pm 25.9 SE 2 4 1009.8 - 15.8 - - 10 - - - -
05/10:30pm 25.9 SSE 2 4 1009.9 - 15.8 - - 10 - - - -
05/10:00pm 25.9 SE 1 3 1010.0 - 15.8 - - 10 - - - -
05/09:30pm 25.9 SSE 2 3 1010.0 - 15.8 - - 10 - - - -
05/09:00pm 25.8 SSE 2 3 1010.1 - 15.8 - - 10 - - - -
05/08:30pm 25.8 SE 2 3 1009.9 - 15.8 - - 10 - - - -
05/08:00pm 25.7 SE 2 3 1009.7 - 15.8 - - 10 - - - -
05/07:30pm 25.7 SE 2 5 1009.4 - 15.8 - - 10 - - - -
05/07:00pm 25.9 SSE 1 3 1009.0 - 15.8 - - 10 - - - -
05/06:30pm 26.3 SSW 1 2 1008.6 - 15.8 - - 10 - - - -
05/06:00pm 27.0 SE 1 2 1008.3 - 15.8 - - 10 - - - -
05/05:30pm 27.1 SSW 2 3 1008.0 - 15.8 - - 10 - - - -
05/05:00pm 27.1 SSW 3 5 1007.7 - 15.8 - - 10 - - - -
05/04:30pm 27.2 SSW 2 4 1007.4 - 15.8 - - 10 - - - -
05/04:00pm 27.0 SSW 2 4 1007.3 - 15.8 - - 10 - - - -
05/03:30pm 26.1 S 2 4 1007.5 - 15.8 - - 10 - - - -
05/03:00pm 25.4 SE 3 4 1008.0 - 15.8 - Mostly clear 10 - - - -
05/02:30pm 25.3 S 2 4 1008.2 - 15.8 - Partly cloudy 10 - - - -
05/02:00pm 24.6 SE 2 4 1008.7 - 15.8 - - 10 - - - -
05/01:30pm 24.2 CALM 0 2 1008.9 - 15.8 - Partly cloudy 10 - - - -
05/01:00pm 23.8 S 2 4 1008.9 - 15.8 - Partly cloudy 10 - - - -
05/12:30pm 23.5 SSW 2 4 1009.5 - 14.6 - Partly cloudy 7 - - - -
05/12:26pm 23.5 SW 3 5 1009.7 - 14.0 - Partly cloudy 8 - - - -
05/12:20pm 23.5 SW 3 5 1009.9 - 11.6 - Partly cloudy 5 - - - -
05/12:01pm 23.4 NE 5 10 1011.2 - 3.2 - Partly cloudy 1 - - - -
05/12:00pm 23.5 NE 6 10 1011.4 - 2.8 Rain Cloudy 1 - - - -
05/11:56am 23.9 NE 6 11 1011.6 - 1.4 - Partly cloudy 4 - - - -
05/11:30am 25.0 NW 15 25 1010.2 - 0.2 - Partly cloudy 6 - - - -
05/11:27am 25.1 NW 15 25 1010.2 - 0.2 - Partly cloudy 8 - - - -
05/11:17am 25.9 NW 15 25 1010.0 - 0.0 - Partly cloudy 10 - - - -
05/11:00am 29.2 NNW 6 9 1010.0 - 0.0 - Partly cloudy 10 - - - -
05/10:30am 27.6 SE 4 7 1010.4 - 0.0 - Partly cloudy 10 - - - -
05/10:00am 29.6 ESE 1 5 1010.0 - 0.0 - Partly cloudy 10 - - - -
05/09:30am 29.3 NE 1 3 1010.0 - 0.0 - Partly cloudy 10 - - - -
05/09:00am 29.2 E 3 6 1010.2 - 40.6 - - 10 - - - -
05/08:30am 28.7 E 4 6 1010.3 - 40.6 - - 10 - - - -
05/08:00am 28.4 ESE 4 6 1010.2 - 40.6 - - 10 - - - -
05/07:30am 28.3 E 5 7 1009.9 - 40.6 - - 10 - - - -
05/07:00am 28.1 ESE 4 7 1009.6 - 40.6 - - 10 - - - -
05/06:30am 27.0 SE 3 6 1009.2 - 40.6 - - 10 - - - -
05/06:00am 26.2 ESE 3 4 1009.0 - 40.6 - - 10 - - - -
05/05:30am 25.2 ESE 2 4 1008.6 - 40.6 - - 10 - - - -
05/05:00am 25.3 CALM 0 2 1008.3 - 40.6 - - 10 - - - -
05/04:30am 24.8 CALM 0 1 1008.0 - 40.6 - - 10 - - - -
05/04:00am 25.0 E 2 3 1007.9 - 40.6 - Partly cloudy 10 - - - -
05/03:30am 24.6 CALM 0 1 1008.0 - 40.6 - - 10 - - - -
05/03:00am 24.5 NNE 1 3 1008.0 - 40.6 Recent precip. Mostly clear 10 - - - -
05/02:30am 24.2 SSE 2 4 1007.9 - 40.6 - Partly cloudy 10 - - - -
05/02:00am 23.9 S 2 4 1007.9 - 40.4 - Partly cloudy 10 - - - -
05/01:34am 23.9 S 3 5 1008.5 - 40.2 - Partly cloudy 10 - - - -
05/01:30am 23.8 S 4 10 1008.6 - 40.2 - Partly cloudy 10 - - - -
05/01:00am 23.5 E 6 9 1009.1 - 34.2 - Partly cloudy 5 - - - -
05/12:54am 23.4 ENE 7 12 1009.3 - 33.0 - Partly cloudy 5 - - - -
05/12:30am 24.5 ENE 11 19 1009.5 - 22.0 - Partly cloudy 2 - - - -
05/12:29am 24.6 ENE 11 19 1009.5 - 21.0 - Partly cloudy 2 - - - -
05/12:26am 24.7 ENE 11 19 1009.5 - 20.2 - Partly cloudy 4 - - - -
05/12:00am 25.4 S 5 7 1009.1 - 18.6 - Cloudy 10 - - - -
 
Date/Time
WST
Temp
°C
Wind Pressure Rain since
9am
mm
Weather Cloud Vis
km
Sea
Height
m
Swell
Dir  Spd
kts
Gust
kts
hPa Trend Height
m
Period
s
Dir
04/11:30pm 26.5 SE 4 8 1009.4 - 18.6 - Partly cloudy 10 - - - -
04/11:00pm 26.8 SE 5 9 1009.7 - 18.6 - Partly cloudy 10 - - - -
04/10:30pm 27.8 CALM 0 1 1009.7 - 18.6 - Partly cloudy 10 - - - -
04/10:00pm 28.1 S 1 3 1010.0 - 18.6 - Partly cloudy 10 - - - -
04/09:30pm 28.5 W 2 4 1009.8 - 18.6 - Partly cloudy 10 - - - -
04/09:00pm 28.5 W 2 4 1009.4 - 18.6 - - 10 - - - -
04/08:30pm 28.7 WSW 3 4 1009.3 - 18.6 - Partly cloudy 10 - - - -
04/08:00pm 28.8 WNW 4 6 1009.1 - 18.6 - Partly cloudy 10 - - - -
04/07:30pm 28.9 WNW 4 7 1009.0 - 18.6 - Partly cloudy 10 - - - -
04/07:00pm 28.9 WNW 5 9 1008.6 - 18.6 - Partly cloudy 10 - - - -
04/06:30pm 29.0 WNW 4 8 1008.0 - 18.6 - Partly cloudy 10 - - - -
04/06:00pm 29.0 W 6 9 1007.6 - 18.6 - Mostly clear 10 - - - -
04/05:30pm 29.2 W 7 11 1007.5 - 18.6 - Partly cloudy 10 - - - -
04/05:00pm 29.5 WNW 7 11 1006.9 - 18.6 - Partly cloudy 10 - - - -
04/04:30pm 30.0 WNW 7 12 1006.6 - 18.6 - Partly cloudy 10 - - - -
04/04:00pm 30.3 WNW 7 12 1006.7 - 18.6 - Partly cloudy 10 - - - -
04/03:30pm 30.0 W 7 12 1006.8 - 18.6 - Partly cloudy 10 - - - -
04/03:00pm 30.3 WNW 6 11 1006.7 - 18.6 - Mostly cloudy 10 - - - -
04/02:30pm 30.5 NW 7 13 1007.2 - 18.6 - Partly cloudy 10 - - - -
04/02:00pm 30.9 WNW 7 12 1007.4 - 18.6 - Partly cloudy 10 - - - -
04/01:30pm 30.6 NNW 7 11 1007.6 - 18.6 - Partly cloudy 10 - - - -
04/01:00pm 30.2 WNW 5 7 1007.9 - 18.6 - Partly cloudy 10 - - - -
04/12:30pm 28.4 NNW 5 7 1007.9 - 18.4 - Partly cloudy 10 - - - -
04/12:00pm 27.8 NW 6 7 1008.1 - 18.2 Recent precip. Cloudy 10 - - - -
04/11:30am 27.4 NW 2 3 1008.4 - 18.0 - Partly cloudy 10 - - - -
04/11:11am 26.5 SE 1 4 1008.5 - 17.8 - Partly cloudy 10 - - - -
04/11:00am 25.3 SSE 5 9 1008.6 - 17.2 - Partly cloudy 3 - - - -
04/10:30am 26.8 NNE 7 11 1009.2 - 4.8 - Partly cloudy 3 - - - -
04/10:18am 29.0 WNW 7 13 1008.9 - 1.8 - Partly cloudy 5 - - - -
04/10:00am 32.2 WSW 5 9 1008.7 - 0.0 - Partly cloudy 10 - - - -
04/09:30am 31.8 SSW 6 11 1009.0 - 0.0 - Partly cloudy 10 - - - -
04/09:00am 32.1 S 5 9 1009.2 - 2.2 - Mostly cloudy 10 - - - -
04/08:30am 30.8 S 6 10 1009.2 - 2.2 - Partly cloudy 10 - - - -
04/08:00am 30.1 S 5 9 1009.0 - 2.2 - Partly cloudy 10 - - - -
04/07:30am 29.7 S 3 6 1009.0 - 2.2 - - 10 - - - -
04/07:00am 28.8 SSE 4 6 1008.8 - 2.2 - - 10 - - - -
04/06:30am 28.5 CALM 0 2 1008.7 - 2.2 - - 10 - - - -
04/06:00am 28.5 CALM 0 0 1008.8 - 2.2 - - 10 - - - -
04/05:30am 28.4 SSW 2 4 1008.4 - 2.2 - - 10 - - - -
04/05:00am 28.6 SW 3 5 1008.4 - 2.2 - - 10 - - - -
04/04:30am 28.8 WSW 4 8 1008.5 - 2.2 - Partly cloudy 10 - - - -
04/04:00am 28.8 W 4 7 1008.6 - 2.2 - Partly cloudy 10 - - - -
04/03:30am 28.8 W 4 8 1008.4 - 2.2 - Partly cloudy 10 - - - -
04/03:00am 28.8 W 5 9 1008.1 - 2.2 - Partly cloudy 10 - - - -
04/02:30am 28.7 W 5 9 1007.7 - 2.2 - Partly cloudy 10 - - - -
04/02:00am 28.7 W 5 9 1008.0 - 2.2 - Partly cloudy 10 - - - -
04/01:30am 28.9 W 5 9 1008.3 - 2.2 - - 10 - - - -
04/01:00am 28.9 W 5 10 1008.2 - 2.2 - Partly cloudy 10 - - - -
04/12:30am 28.9 W 5 9 1008.3 - 2.2 - - 10 - - - -
04/12:00am 28.9 W 5 9 1008.5 - 2.2 - Mostly clear 10 - - - -
 
Date/Time
WST
Temp
°C
Wind Pressure Rain since
9am
mm
Weather Cloud Vis
km
Sea
Height
m
Swell
Dir  Spd
kts
Gust
kts
hPa Trend Height
m
Period
s
Dir
03/11:30pm 28.9 W 4 7 1009.0 - 2.2 - - 10 - - - -
03/11:00pm 29.1 W 6 10 1009.1 - 2.2 - - 10 - - - -
03/10:30pm 29.1 W 5 9 1009.5 - 2.2 - - 10 - - - -
03/10:00pm 29.2 W 5 10 1009.6 - 2.2 - - 10 - - - -
03/09:30pm 29.3 W 3 6 1009.4 - 2.2 - - 10 - - - -
03/09:00pm 29.2 W 4 8 1009.3 - 2.2 - - 10 - - - -
03/08:30pm 29.2 W 5 9 1009.0 - 2.2 - - 10 - - - -
03/08:00pm 29.3 WNW 4 7 1008.8 - 2.2 - - 10 - - - -
03/07:30pm 29.4 WNW 5 7 1008.4 - 2.2 - - 10 - - - -
03/07:00pm 29.5 W 5 9 1008.1 - 2.2 - - 10 - - - -
03/06:30pm 29.7 W 6 9 1007.6 - 2.2 - - 10 - - - -
03/06:00pm 29.9 W 7 11 1007.3 - 2.2 - - 10 - - - -
03/05:30pm 30.5 W 6 11 1007.1 - 2.2 - - 10 - - - -
03/05:00pm 30.7 W 6 10 1006.9 - 2.2 - - 10 - - - -
03/04:30pm 31.1 WNW 7 10 1006.9 - 2.2 - - 10 - - - -

Other Formats:

Comma delimited format used in spreadsheet applications
http://www.bom.gov.au/fwo/IDW60701/IDW60701.99206.axf

JavaScript Object Notation format (JSON) in row-major order
http://www.bom.gov.au/fwo/IDW60701/IDW60701.99206.json